createdAt,value
2017-05-04T00:02:18.900Z,68.08
2017-05-04T00:04:51.902Z,63.96
2017-05-04T00:07:20.424Z,66.62
2017-05-04T00:09:48.889Z,62.82
2017-05-04T00:12:20.180Z,62.30
2017-05-04T00:14:59.603Z,60.84
2017-05-04T00:17:28.719Z,61.46
2017-05-04T00:20:00.028Z,61.16
2017-05-04T00:22:29.159Z,61.10
2017-05-04T00:24:57.590Z,57.72
2017-05-04T00:27:47.409Z,58.60
2017-05-04T00:33:10.685Z,55.72
2017-05-04T00:35:42.936Z,55.32
2017-05-04T00:38:12.411Z,56.58
2017-05-04T00:40:54.485Z,57.22
2017-05-04T00:43:24.437Z,52.78
2017-05-04T00:45:53.084Z,50.46
2017-05-04T00:48:22.987Z,54.32
2017-05-04T00:51:00.919Z,53.82
2017-05-04T00:53:40.309Z,52.24
2017-05-04T00:56:09.475Z,50.68
2017-05-04T00:58:38.609Z,47.66
2017-05-04T01:01:07.098Z,49.16
2017-05-04T01:03:37.038Z,49.24
2017-05-04T01:06:05.671Z,47.24
2017-05-04T01:08:46.805Z,48.38
2017-05-04T01:11:38.508Z,48.72
2017-05-04T01:14:10.673Z,46.12
2017-05-04T01:16:39.890Z,45.68
2017-05-04T01:19:08.272Z,45.14
2017-05-04T01:21:36.763Z,45.54
2017-05-04T01:24:08.869Z,44.04
2017-05-04T01:26:43.724Z,45.06
2017-05-04T01:29:12.143Z,42.82
2017-05-04T01:31:41.403Z,43.02
2017-05-04T01:34:19.930Z,43.88
2017-05-04T01:36:49.073Z,41.28
2017-05-04T01:39:18.262Z,41.82
2017-05-04T01:41:49.595Z,41.72
2017-05-04T01:44:30.724Z,42.10
2017-05-04T01:46:59.955Z,39.20
2017-05-04T01:49:31.522Z,42.94
2017-05-04T01:52:07.440Z,38.70
2017-05-04T01:54:45.940Z,38.34
2017-05-04T01:57:15.143Z,38.72
2017-05-04T01:59:44.357Z,39.20
2017-05-04T02:02:16.243Z,35.86
2017-05-04T02:04:45.333Z,38.46
2017-05-04T02:10:11.017Z,37.82
2017-05-04T02:12:40.245Z,35.00
2017-05-04T02:15:11.599Z,34.30
2017-05-04T02:17:41.559Z,36.44
2017-05-04T02:20:21.374Z,33.84
2017-05-04T02:23:00.677Z,31.36
2017-05-04T02:25:36.771Z,32.94
2017-05-04T02:28:06.959Z,34.22
2017-05-04T02:30:36.342Z,31.32
2017-05-04T02:33:17.956Z,31.44
2017-05-04T02:35:50.021Z,28.90
2017-05-04T02:38:20.132Z,32.38
2017-05-04T02:40:56.162Z,30.92
2017-05-04T02:43:26.908Z,32.20
2017-05-04T02:46:05.463Z,29.16
2017-05-04T02:48:47.427Z,29.54
2017-05-04T02:51:16.614Z,29.08
2017-05-04T02:53:45.061Z,29.48
2017-05-04T02:56:13.710Z,26.82
2017-05-04T02:58:42.102Z,29.30
2017-05-04T03:01:14.313Z,28.72
2017-05-04T03:03:47.198Z,28.04
2017-05-04T03:09:10.109Z,25.88
2017-05-04T03:11:38.500Z,27.82
2017-05-04T03:14:06.989Z,28.82
2017-05-04T03:16:48.265Z,25.86
2017-05-04T03:19:16.636Z,26.64
2017-05-04T03:21:45.036Z,25.26
2017-05-04T03:24:24.297Z,27.34
2017-05-04T03:26:59.289Z,25.70
2017-05-04T03:29:47.693Z,25.12
2017-05-04T03:32:16.978Z,24.48
2017-05-04T03:34:50.734Z,23.42
2017-05-04T03:37:20.127Z,22.90
2017-05-04T03:39:48.608Z,26.08
2017-05-04T03:42:17.129Z,23.74
2017-05-04T03:44:50.192Z,24.80
2017-05-04T03:47:18.828Z,22.24
2017-05-04T03:49:47.202Z,23.30
2017-05-04T03:52:21.423Z,21.50
2017-05-04T03:54:56.926Z,22.94
2017-05-04T03:57:48.760Z,21.68
2017-05-04T04:00:18.021Z,20.46
2017-05-04T04:02:52.946Z,20.38
2017-05-04T04:05:22.084Z,20.44
2017-05-04T04:07:52.368Z,20.68
2017-05-04T04:10:30.511Z,21.62
2017-05-04T04:13:06.490Z,19.94
2017-05-04T04:15:35.850Z,19.34
2017-05-04T04:18:11.395Z,20.72
2017-05-04T04:20:40.082Z,19.34
2017-05-04T04:23:11.464Z,19.64
2017-05-04T04:25:48.708Z,20.58
2017-05-04T04:28:17.920Z,20.04
2017-05-04T04:30:46.501Z,19.86
2017-05-04T04:33:14.986Z,17.92
2017-05-04T04:35:44.205Z,18.26
2017-05-04T04:38:14.188Z,18.00
2017-05-04T04:40:48.653Z,19.28
2017-05-04T04:43:21.305Z,17.96
2017-05-04T04:45:52.465Z,18.86
2017-05-04T04:48:23.513Z,16.52
2017-05-04T04:50:55.292Z,18.44
2017-05-04T04:53:47.583Z,17.00
2017-05-04T04:56:22.808Z,17.80
2017-05-04T04:58:58.136Z,17.54
2017-05-04T05:01:26.652Z,17.82
2017-05-04T05:04:06.874Z,18.82
2017-05-04T05:06:36.220Z,18.00
2017-05-04T05:11:59.913Z,19.70
2017-05-04T05:14:48.744Z,17.86
2017-05-04T05:17:18.118Z,19.02
2017-05-04T05:19:56.366Z,17.48
2017-05-04T05:22:26.433Z,16.80
2017-05-04T05:25:05.693Z,16.16
2017-05-04T05:27:37.605Z,17.96
2017-05-04T05:30:11.436Z,17.72
2017-05-04T05:32:39.836Z,12.38
2017-05-04T05:35:11.690Z,11.38
2017-05-04T05:37:49.041Z,12.94
2017-05-04T05:40:18.152Z,13.96
2017-05-04T05:42:46.557Z,13.52
2017-05-04T05:45:15.118Z,13.24
2017-05-04T05:47:43.498Z,14.02
2017-05-04T05:50:11.912Z,13.68
2017-05-04T05:52:41.025Z,11.90
2017-05-04T05:55:11.096Z,12.64
2017-05-04T05:57:39.590Z,11.60
2017-05-04T06:00:08.849Z,11.54
2017-05-04T06:02:38.029Z,11.18
2017-05-04T06:05:09.928Z,12.52
2017-05-04T06:07:45.214Z,11.32
2017-05-04T06:10:14.370Z,10.96
2017-05-04T06:15:50.009Z,10.94
2017-05-04T06:18:21.242Z,10.78
2017-05-04T06:20:57.524Z,10.32
2017-05-04T06:23:29.427Z,10.42
2017-05-04T06:25:58.662Z,11.52
2017-05-04T06:28:47.006Z,10.06
2017-05-04T06:31:25.597Z,10.82
2017-05-04T06:33:54.275Z,10.08
2017-05-04T06:39:17.396Z,11.10
2017-05-04T06:41:46.946Z,11.12
2017-05-04T06:44:15.370Z,12.04
2017-05-04T06:46:44.666Z,12.00
2017-05-04T06:49:13.803Z,11.44
2017-05-04T06:51:42.365Z,11.68
2017-05-04T06:54:11.603Z,13.48
2017-05-04T06:56:40.181Z,13.76
2017-05-04T06:59:10.092Z,12.20
2017-05-04T07:01:56.217Z,12.34
2017-05-04T07:04:25.444Z,12.84
2017-05-04T07:06:53.813Z,14.36
2017-05-04T07:09:23.414Z,13.52
2017-05-04T07:12:02.368Z,14.00
2017-05-04T07:17:26.115Z,14.04
2017-05-04T07:19:56.198Z,12.88
2017-05-04T07:22:27.653Z,14.06
2017-05-04T07:24:57.573Z,12.84
2017-05-04T07:27:29.462Z,13.84
2017-05-04T07:32:52.551Z,12.78
2017-05-04T07:35:22.440Z,13.18
2017-05-04T07:37:51.609Z,14.42
2017-05-04T07:40:23.512Z,13.50
2017-05-04T07:42:52.054Z,12.58
2017-05-04T07:45:21.156Z,13.22
2017-05-04T07:47:52.301Z,13.62
2017-05-04T07:50:21.446Z,12.70
2017-05-04T07:52:53.486Z,13.40
2017-05-04T07:55:22.597Z,13.20
2017-05-04T07:57:51.125Z,12.50
2017-05-04T08:00:25.184Z,12.50
2017-05-04T08:03:04.515Z,11.86
2017-05-04T08:05:35.824Z,12.82
2017-05-04T08:08:07.059Z,13.46
2017-05-04T08:10:36.601Z,12.80
2017-05-04T08:13:05.859Z,13.20
2017-05-04T08:15:47.800Z,12.40
2017-05-04T08:18:16.961Z,11.80
2017-05-04T08:20:46.154Z,13.18
2017-05-04T08:23:18.490Z,12.54
2017-05-04T08:25:47.868Z,12.94
2017-05-04T08:28:17.915Z,13.68
2017-05-04T08:30:46.409Z,12.18
2017-05-04T08:33:15.640Z,13.24
2017-05-04T08:35:52.144Z,12.50
2017-05-04T08:38:27.409Z,11.74
2017-05-04T08:40:55.956Z,11.02
2017-05-04T08:43:48.282Z,11.68
2017-05-04T08:46:17.919Z,11.34
2017-05-04T08:48:47.191Z,11.48
2017-05-04T08:51:17.169Z,12.10
2017-05-04T08:53:49.657Z,11.48
2017-05-04T08:56:20.998Z,11.66
2017-05-04T08:58:49.630Z,11.68
2017-05-04T09:01:19.114Z,11.88
2017-05-04T09:03:48.278Z,11.14
2017-05-04T09:06:17.626Z,12.16
2017-05-04T09:08:49.126Z,11.04
2017-05-04T09:11:21.167Z,11.16
2017-05-04T09:13:53.049Z,10.90
2017-05-04T09:16:35.405Z,11.46
2017-05-04T09:19:13.863Z,11.58
2017-05-04T09:21:46.095Z,11.24
2017-05-04T09:24:15.289Z,11.06
2017-05-04T09:26:46.542Z,11.16
2017-05-04T09:29:14.965Z,10.90
2017-05-04T09:31:46.261Z,11.54
2017-05-04T09:34:28.814Z,9.86
2017-05-04T09:37:11.042Z,10.70
2017-05-04T09:39:42.872Z,10.46
2017-05-04T09:42:11.341Z,10.78
2017-05-04T09:44:39.711Z,10.18
2017-05-04T09:47:08.117Z,10.34
2017-05-04T09:49:48.944Z,10.98
2017-05-04T09:52:20.859Z,11.36
2017-05-04T09:54:49.277Z,10.62
2017-05-04T09:57:18.610Z,10.84
2017-05-04T09:59:50.738Z,10.26
2017-05-04T10:02:19.782Z,10.60
2017-05-04T10:04:48.149Z,11.36
2017-05-04T10:07:26.663Z,10.34
2017-05-04T10:09:55.152Z,9.76
2017-05-04T10:12:23.529Z,9.74
2017-05-04T10:14:54.772Z,9.74
2017-05-04T10:23:15.221Z,9.60
2017-05-04T10:25:44.625Z,8.56
2017-05-04T10:28:14.123Z,9.90
2017-05-04T10:30:49.682Z,10.40
2017-05-04T10:33:18.225Z,10.00
2017-05-04T10:35:46.594Z,9.36
2017-05-04T10:38:16.840Z,10.60
2017-05-04T10:40:49.117Z,9.64
2017-05-04T10:43:18.519Z,9.72
2017-05-04T10:45:53.550Z,9.34
2017-05-04T10:48:32.411Z,8.92
2017-05-04T10:51:08.709Z,8.34
2017-05-04T10:53:37.346Z,9.28
2017-05-04T10:56:05.781Z,8.64
2017-05-04T10:58:41.209Z,8.42
2017-05-04T11:01:15.769Z,9.94
2017-05-04T11:03:44.233Z,10.36
2017-05-04T11:06:22.765Z,9.32
2017-05-04T11:09:08.482Z,9.22
2017-05-04T11:11:38.572Z,9.04
2017-05-04T11:14:07.112Z,9.44
2017-05-04T11:16:35.608Z,9.04
2017-05-04T11:19:04.896Z,9.44
2017-05-04T11:21:34.116Z,9.54
2017-05-04T11:24:06.223Z,9.12
2017-05-04T11:26:48.609Z,8.10
2017-05-04T11:29:17.998Z,8.30
2017-05-04T11:31:47.777Z,8.62
2017-05-04T11:34:16.287Z,8.14
2017-05-04T11:36:46.240Z,8.82
2017-05-04T11:39:15.592Z,8.74
2017-05-04T11:41:50.220Z,8.76
2017-05-04T11:44:18.706Z,8.62
2017-05-04T11:46:47.907Z,8.28
2017-05-04T11:49:16.317Z,8.20
2017-05-04T11:51:46.375Z,9.00
2017-05-04T11:54:17.591Z,8.96
2017-05-04T11:56:53.707Z,8.28
2017-05-04T11:59:31.872Z,8.72
2017-05-04T12:02:00.243Z,8.00
2017-05-04T12:04:29.389Z,8.54
2017-05-04T12:06:58.430Z,8.14
2017-05-04T12:09:48.138Z,8.22
2017-05-04T12:15:14.260Z,8.02
2017-05-04T12:17:44.219Z,8.62
2017-05-04T12:23:07.560Z,8.08
2017-05-04T12:25:36.067Z,8.60
2017-05-04T12:28:05.853Z,7.70
2017-05-04T12:30:34.431Z,7.96
2017-05-04T12:36:00.664Z,8.28
2017-05-04T12:38:35.973Z,7.70
2017-05-04T12:41:04.477Z,7.22
2017-05-04T12:43:43.858Z,7.30
2017-05-04T12:46:13.049Z,7.50
2017-05-04T12:48:41.405Z,7.30
2017-05-04T12:54:07.053Z,7.18
2017-05-04T12:56:36.188Z,7.10
2017-05-04T12:59:04.711Z,7.64
2017-05-04T13:01:45.788Z,7.20
2017-05-04T13:04:27.426Z,7.16
2017-05-04T13:06:59.395Z,7.14
2017-05-04T13:09:44.869Z,7.18
2017-05-04T13:12:13.243Z,7.70
2017-05-04T13:14:48.581Z,7.08
2017-05-04T13:17:20.542Z,6.98
2017-05-04T13:19:49.877Z,7.80
2017-05-04T13:22:24.574Z,6.74
2017-05-04T13:24:55.975Z,7.44
2017-05-04T13:27:31.398Z,7.42
2017-05-04T13:30:03.661Z,7.86
2017-05-04T13:32:36.524Z,6.66
2017-05-04T13:35:08.581Z,6.26
2017-05-04T13:37:43.640Z,6.16
2017-05-04T13:40:14.937Z,6.64
2017-05-04T13:42:43.492Z,7.56
2017-05-04T13:45:14.875Z,7.40
2017-05-04T13:47:50.203Z,6.08
2017-05-04T13:50:22.067Z,6.54
2017-05-04T13:52:53.880Z,6.56
2017-05-04T13:55:35.725Z,7.10
2017-05-04T13:58:04.938Z,6.30
2017-05-04T14:00:33.295Z,6.72
2017-05-04T14:03:05.081Z,5.92
2017-05-04T14:05:44.869Z,6.58
2017-05-04T14:14:05.188Z,5.80
2017-05-04T14:16:43.797Z,6.52
2017-05-04T14:22:14.957Z,6.66
2017-05-04T14:24:44.075Z,7.08
2017-05-04T14:27:22.722Z,6.66
2017-05-04T14:29:54.089Z,6.78
2017-05-04T14:32:24.337Z,6.92
2017-05-04T14:34:53.688Z,7.02
2017-05-04T14:37:22.267Z,5.60
2017-05-04T14:39:50.748Z,7.12
2017-05-04T14:42:20.588Z,6.64
2017-05-04T14:44:56.019Z,6.76
2017-05-04T14:47:43.813Z,6.40
2017-05-04T14:50:13.070Z,6.96
2017-05-04T14:52:45.053Z,5.98
2017-05-04T14:55:14.076Z,6.58
2017-05-04T14:57:49.980Z,7.40
2017-05-04T15:00:21.215Z,6.94
2017-05-04T15:02:52.536Z,6.66
2017-05-04T15:05:21.565Z,7.18
2017-05-04T15:07:50.747Z,7.48
2017-05-04T15:10:20.201Z,6.82
2017-05-04T15:12:50.003Z,8.54
2017-05-04T15:15:26.157Z,8.14
2017-05-04T15:17:55.331Z,8.68
2017-05-04T15:20:23.705Z,9.18
2017-05-04T15:22:55.106Z,8.70
2017-05-04T15:25:24.398Z,8.38
2017-05-04T15:27:53.859Z,8.88
2017-05-04T15:30:22.324Z,7.98
2017-05-04T15:32:50.683Z,8.32
2017-05-04T15:35:43.134Z,8.60
2017-05-04T15:44:00.605Z,8.36
2017-05-04T15:46:36.891Z,8.22
2017-05-04T15:49:05.581Z,9.08
2017-05-04T15:51:35.474Z,8.26
2017-05-04T15:54:05.724Z,7.62
2017-05-04T15:56:36.945Z,8.36
2017-05-04T15:59:12.561Z,8.66
2017-05-04T16:01:44.356Z,8.12
2017-05-04T16:04:15.941Z,8.82
2017-05-04T16:06:45.516Z,7.82
2017-05-04T16:15:50.125Z,7.82
2017-05-04T16:18:18.516Z,8.52
2017-05-04T16:20:47.027Z,7.90
2017-05-04T16:23:18.879Z,8.08
2017-05-04T16:25:47.301Z,7.94
2017-05-04T16:28:20.022Z,9.58
2017-05-04T16:30:51.325Z,10.70
2017-05-04T16:33:19.881Z,10.02
2017-05-04T16:35:48.949Z,10.36
2017-05-04T16:38:18.283Z,10.46
2017-05-04T16:40:46.658Z,10.94
2017-05-04T16:46:10.284Z,10.66
2017-05-04T16:48:39.401Z,11.14
2017-05-04T16:51:10.665Z,9.56
2017-05-04T16:53:46.016Z,9.76
2017-05-04T16:58:55.011Z,9.96
2017-05-04T17:01:23.422Z,9.24
2017-05-04T17:03:53.402Z,7.88
2017-05-04T17:09:24.523Z,9.58
2017-05-04T17:11:54.802Z,9.10
2017-05-04T17:14:42.862Z,8.06
2017-05-04T17:17:11.266Z,8.80
2017-05-04T17:19:45.850Z,9.86
2017-05-04T17:31:14.640Z,9.20
2017-05-04T17:33:51.921Z,8.96
2017-05-04T17:36:31.568Z,9.16
2017-05-04T17:44:50.235Z,9.20
2017-05-04T17:56:03.084Z,9.34
2017-05-04T18:01:37.402Z,9.70
2017-05-04T18:09:59.841Z,10.38
2017-05-04T18:12:43.408Z,9.68
2017-05-04T18:24:02.452Z,9.52
2017-05-04T18:26:43.932Z,8.98
2017-05-04T18:35:08.968Z,10.72
2017-05-04T18:37:44.656Z,9.66
2017-05-04T18:43:08.787Z,10.08
2017-05-04T18:45:44.665Z,9.04
2017-05-04T18:51:06.958Z,9.44
2017-05-04T18:53:36.820Z,8.86
2017-05-04T18:58:59.891Z,8.86
2017-05-04T19:01:29.066Z,8.60
2017-05-04T19:06:52.789Z,9.36
2017-05-04T19:09:44.753Z,9.18
2017-05-04T19:12:13.374Z,9.52
2017-05-04T19:14:42.488Z,9.28
2017-05-04T19:17:10.889Z,8.82
2017-05-04T19:19:45.062Z,8.94
2017-05-04T19:25:09.246Z,9.84
2017-05-04T19:27:44.276Z,8.24
2017-05-04T19:33:06.702Z,7.84
2017-05-04T19:35:45.209Z,7.80
2017-05-04T19:41:08.544Z,8.26
2017-05-04T19:43:38.592Z,7.40
2017-05-04T19:46:07.121Z,7.56
2017-05-04T19:48:45.370Z,7.54
2017-05-04T19:53:45.887Z,7.50
2017-05-04T19:59:09.986Z,7.28
2017-05-04T20:01:41.838Z,7.86
2017-05-04T20:07:04.064Z,7.44
2017-05-04T20:09:45.210Z,7.78
2017-05-04T20:14:56.802Z,7.46
2017-05-04T20:17:35.068Z,7.64
2017-05-04T20:20:07.361Z,7.40
2017-05-04T20:31:08.826Z,8.08
2017-05-04T20:33:37.266Z,8.52
2017-05-04T20:36:09.082Z,8.72
2017-05-04T20:38:44.387Z,8.08
2017-05-04T20:41:13.585Z,8.26
2017-05-04T20:43:43.796Z,8.06
2017-05-04T20:49:11.176Z,9.14
2017-05-04T20:51:46.239Z,8.50
2017-05-04T20:57:10.718Z,8.84
2017-05-04T20:59:39.217Z,8.60
2017-05-04T21:05:04.507Z,9.10
2017-05-04T21:07:34.488Z,8.36
2017-05-04T21:12:57.388Z,8.14
2017-05-04T21:15:25.995Z,8.10
2017-05-04T21:20:48.192Z,7.74
2017-05-04T21:23:23.532Z,8.80
2017-05-04T21:25:59.345Z,8.86
2017-05-04T21:28:44.741Z,8.18
2017-05-04T21:31:14.045Z,7.88
2017-05-04T21:33:46.024Z,7.84
2017-05-04T21:39:12.398Z,8.40
2017-05-04T21:41:41.877Z,8.20
2017-05-04T21:49:59.114Z,8.46
2017-05-04T21:52:44.629Z,9.04
2017-05-04T21:55:16.812Z,8.32
2017-05-04T21:57:45.291Z,8.36
2017-05-04T22:03:03.567Z,8.38
2017-05-04T22:05:42.882Z,8.16
2017-05-04T22:10:52.530Z,8.70
2017-05-04T22:13:25.237Z,8.84
2017-05-04T22:15:54.612Z,9.24
2017-05-04T22:18:43.803Z,8.98
2017-05-04T22:21:12.353Z,9.48
2017-05-04T22:23:43.143Z,8.76
2017-05-04T22:26:15.119Z,7.92
2017-05-04T22:28:50.867Z,8.82
2017-05-04T22:31:20.006Z,8.12
2017-05-04T22:33:49.909Z,9.32
2017-05-04T22:39:13.756Z,9.58
2017-05-04T22:41:47.882Z,8.54
2017-05-04T22:47:07.016Z,8.58
2017-05-04T22:49:35.387Z,8.80
2017-05-04T22:52:05.248Z,8.72
2017-05-04T22:54:46.102Z,8.30
2017-05-04T23:00:12.394Z,9.58
2017-05-04T23:02:45.380Z,9.88
2017-05-04T23:05:14.512Z,9.72
2017-05-04T23:07:43.838Z,8.92
2017-05-04T23:10:15.072Z,9.22
2017-05-04T23:12:45.073Z,9.00
2017-05-04T23:15:13.536Z,9.50
2017-05-04T23:17:46.428Z,8.86
2017-05-04T23:23:09.316Z,8.52
2017-05-04T23:25:47.896Z,9.02
2017-05-04T23:28:44.140Z,9.48
2017-05-04T23:31:13.809Z,8.80
2017-05-04T23:33:45.288Z,8.92
2017-05-04T23:44:59.612Z,10.80
2017-05-04T23:47:28.188Z,9.26
2017-05-04T23:49:57.445Z,10.04
2017-05-04T23:52:30.426Z,9.02
2017-05-04T23:55:01.685Z,10.22
2017-05-04T23:57:33.737Z,9.68
